Terminal Aerodrome Forecast
Issued by NWS Sioux Falls, SD

Home | Current Version | Previous Version | Text Only | Print | Product List | Glossary Off
Versions: 1 2 3 4 5 6 7 8 9 10 11 12 13

000
FTUS43 KFSD 172100 AAB
TAFHON
TAF AMD
KHON 172116Z 1721/1818 VRB04KT P6SM SCT025 SCT120
     FM180400 27006KT 6SM -TSRA BKN050CB
     FM180600 27005KT P6SM SCT100
     FM181500 28009KT P6SM SCT050=

USA.gov is the U.S. government's official web portal to all federal, state and local government web resources and services.